createdAt,value
2023-11-22T00:02:04.298Z,99603.44
2023-11-22T00:04:31.663Z,99608.38
2023-11-22T00:06:58.677Z,99612.97
2023-11-22T00:09:25.754Z,99604.09
2023-11-22T00:11:52.773Z,99603.31
2023-11-22T00:14:19.936Z,99611.22
2023-11-22T00:16:47.603Z,99598.41
2023-11-22T00:19:18.351Z,99599.72
2023-11-22T00:21:45.762Z,99597.19
2023-11-22T00:24:13.135Z,99591.94
2023-11-22T00:26:40.493Z,99597.88
2023-11-22T00:29:07.574Z,99595.09
2023-11-22T00:31:34.707Z,99587.25
2023-11-22T00:34:01.951Z,99597.09
2023-11-22T00:36:28.968Z,99593.03
2023-11-22T00:38:56.068Z,99593.69
2023-11-22T00:41:23.220Z,99594.28
2023-11-22T00:43:50.347Z,99599.31
2023-11-22T00:46:17.392Z,99591.41
2023-11-22T00:48:45.665Z,99588.56
2023-11-22T00:51:14.048Z,99587.03
2023-11-22T00:53:41.212Z,99590.31
2023-11-22T00:56:11.308Z,99587.34
2023-11-22T00:58:38.466Z,99597.47
2023-11-22T01:01:06.451Z,99595.47
2023-11-22T01:03:33.672Z,99596.16
2023-11-22T01:06:00.824Z,99603.28
2023-11-22T01:08:27.840Z,99596.63
2023-11-22T01:10:55.012Z,99601.56
2023-11-22T01:13:23.524Z,99598.38
2023-11-22T01:15:50.858Z,99606.69
2023-11-22T01:18:18.130Z,99600.56
2023-11-22T01:20:46.325Z,99605.91
2023-11-22T01:23:13.764Z,99604.91
2023-11-22T01:25:41.469Z,99607.84
2023-11-22T01:28:08.583Z,99606.31
2023-11-22T01:30:36.539Z,99608.97
2023-11-22T01:33:05.743Z,99604.69
2023-11-22T01:35:33.018Z,99599.78
2023-11-22T01:38:00.483Z,99602.88
2023-11-22T01:40:27.517Z,99610.84
2023-11-22T01:42:55.759Z,99613.28
2023-11-22T01:45:23.570Z,99612.72
2023-11-22T01:47:52.085Z,99609.56
2023-11-22T01:50:19.462Z,99607.47
2023-11-22T01:52:47.411Z,99611.09
2023-11-22T01:55:14.913Z,99601.25
2023-11-22T01:57:42.070Z,99608.50
2023-11-22T02:00:15.248Z,99603.44
2023-11-22T02:02:43.742Z,99601.16
2023-11-22T02:05:12.696Z,99602.44
2023-11-22T02:07:40.589Z,99604.09
2023-11-22T02:10:09.032Z,99601.16
2023-11-22T02:12:37.125Z,99608.81
2023-11-22T02:15:05.453Z,99615.81
2023-11-22T02:17:37.512Z,99616.69
2023-11-22T02:20:10.093Z,99609.78
2023-11-22T02:22:47.186Z,99607.13
2023-11-22T02:25:16.463Z,99607.91
2023-11-22T02:27:43.650Z,99603.97
2023-11-22T02:30:12.412Z,99604.22
2023-11-22T02:32:40.476Z,99608.81
2023-11-22T02:35:09.174Z,99607.94
2023-11-22T02:37:36.813Z,99609.13
2023-11-22T02:40:05.680Z,99610.97
2023-11-22T02:42:32.847Z,99610.22
2023-11-22T02:44:59.905Z,99608.16
2023-11-22T02:47:26.932Z,99607.28
2023-11-22T02:49:56.628Z,99610.56
2023-11-22T02:52:25.452Z,99612.97
2023-11-22T02:54:52.546Z,99607.06
2023-11-22T02:57:19.628Z,99613.63
2023-11-22T02:59:46.965Z,99617.25
2023-11-22T03:02:14.037Z,99620.28
2023-11-22T03:04:41.292Z,99620.81
2023-11-22T03:07:08.408Z,99627.41
2023-11-22T03:09:35.612Z,99629.59
2023-11-22T03:12:03.786Z,99621.81
2023-11-22T03:14:31.008Z,99626.63
2023-11-22T03:16:58.945Z,99622.34
2023-11-22T03:19:26.014Z,99635.38
2023-11-22T03:21:53.154Z,99633.53
2023-11-22T03:24:20.251Z,99633.00
2023-11-22T03:26:47.431Z,99633.53
2023-11-22T03:29:17.717Z,99636.59
2023-11-22T03:31:44.977Z,99634.72
2023-11-22T03:34:14.940Z,99636.81
2023-11-22T03:36:42.398Z,99626.84
2023-11-22T03:39:11.365Z,99635.16
2023-11-22T03:41:38.526Z,99629.59
2023-11-22T03:44:10.088Z,99639.44
2023-11-22T03:46:41.423Z,99634.09
2023-11-22T03:49:09.466Z,99630.69
2023-11-22T03:51:37.698Z,99639.88
2023-11-22T03:54:05.065Z,99638.34
2023-11-22T03:56:32.531Z,99638.03
2023-11-22T03:58:59.677Z,99630.47
2023-11-22T04:01:26.788Z,99633.63
2023-11-22T04:03:55.248Z,99630.22
2023-11-22T04:06:22.368Z,99619.72
2023-11-22T04:08:49.673Z,99625.63
2023-11-22T04:11:19.289Z,99628.16
2023-11-22T04:13:46.480Z,99622.69
2023-11-22T04:16:14.251Z,99631.09
2023-11-22T04:18:43.043Z,99631.84
2023-11-22T04:21:10.642Z,99630.09
2023-11-22T04:23:37.856Z,99640.25
2023-11-22T04:26:05.242Z,99636.09
2023-11-22T04:28:32.276Z,99645.75
2023-11-22T04:30:59.376Z,99642.25
2023-11-22T04:33:29.342Z,99644.47
2023-11-22T04:35:56.612Z,99641.69
2023-11-22T04:38:23.938Z,99643.34
2023-11-22T04:40:51.070Z,99645.97
2023-11-22T04:43:18.074Z,99647.19
2023-11-22T04:45:45.144Z,99645.66
2023-11-22T04:48:12.455Z,99656.69
2023-11-22T04:50:39.680Z,99646.94
2023-11-22T04:53:06.747Z,99645.75
2023-11-22T04:55:33.812Z,99646.81
2023-11-22T04:58:00.956Z,99642.34
2023-11-22T05:00:28.177Z,99641.69
2023-11-22T05:02:55.664Z,99651.22
2023-11-22T05:05:22.795Z,99645.09
2023-11-22T05:07:49.780Z,99645.75
2023-11-22T05:10:18.486Z,99646.09
2023-11-22T05:12:46.299Z,99645.97
2023-11-22T05:15:13.381Z,99658.44
2023-11-22T05:17:40.532Z,99659.28
2023-11-22T05:20:10.641Z,99656.13
2023-11-22T05:22:38.868Z,99653.75
2023-11-22T05:25:08.048Z,99653.44
2023-11-22T05:27:35.292Z,99661.88
2023-11-22T05:30:02.513Z,99665.13
2023-11-22T05:32:32.632Z,99665.50
2023-11-22T05:35:00.183Z,99663.28
2023-11-22T05:37:27.801Z,99662.28
2023-11-22T05:39:55.141Z,99652.97
2023-11-22T05:42:22.141Z,99662.97
2023-11-22T05:44:51.184Z,99660.69
2023-11-22T05:47:19.953Z,99665.13
2023-11-22T05:49:47.101Z,99670.94
2023-11-22T05:52:14.238Z,99667.66
2023-11-22T05:54:41.395Z,99677.28
2023-11-22T05:57:10.735Z,99673.34
2023-11-22T05:59:37.837Z,99690.84
2023-11-22T06:11:51.853Z,99680.75
2023-11-22T06:14:18.997Z,99686.69
2023-11-22T06:16:45.992Z,99679.91
2023-11-22T06:19:13.097Z,99683.63
2023-11-22T06:21:40.179Z,99679.91
2023-11-22T06:24:09.911Z,99674.13
2023-11-22T06:26:38.321Z,99682.75
2023-11-22T06:29:05.587Z,99681.78
2023-11-22T06:31:33.293Z,99679.03
2023-11-22T06:34:02.742Z,99688.34
2023-11-22T06:36:30.793Z,99695.97
2023-11-22T06:38:57.774Z,99694.88
2023-11-22T06:41:24.908Z,99690.53
2023-11-22T06:43:52.114Z,99687.38
2023-11-22T06:46:19.123Z,99690.28
2023-11-22T06:48:48.724Z,99690.41
2023-11-22T06:51:18.226Z,99687.78
2023-11-22T06:53:46.471Z,99688.00
2023-11-22T06:56:13.653Z,99691.81
2023-11-22T06:58:40.709Z,99694.00
2023-11-22T07:01:08.645Z,99688.56
2023-11-22T07:03:36.261Z,99692.16
2023-11-22T07:06:03.672Z,99693.91
2023-11-22T07:08:31.749Z,99702.56
2023-11-22T07:10:58.795Z,99709.44
2023-11-22T07:13:25.898Z,99715.78
2023-11-22T07:15:53.094Z,99703.75
2023-11-22T07:18:20.396Z,99711.22
2023-11-22T07:20:49.501Z,99703.88
2023-11-22T07:23:17.108Z,99714.16
2023-11-22T07:25:44.866Z,99715.69
2023-11-22T07:28:11.938Z,99710.34
2023-11-22T07:30:42.431Z,99707.28
2023-11-22T07:33:09.894Z,99714.06
2023-11-22T07:35:37.198Z,99716.13
2023-11-22T07:38:05.202Z,99724.22
2023-11-22T07:40:33.434Z,99721.03
2023-11-22T07:43:00.464Z,99717.97
2023-11-22T07:45:29.155Z,99727.81
2023-11-22T07:47:59.294Z,99719.72
2023-11-22T07:50:30.804Z,99717.97
2023-11-22T07:52:57.945Z,99724.53
2023-11-22T07:55:25.322Z,99719.19
2023-11-22T07:57:52.700Z,99721.25
2023-11-22T08:00:23.837Z,99723.44
2023-11-22T08:02:51.040Z,99718.75
2023-11-22T08:05:19.000Z,99722.63
2023-11-22T08:07:48.813Z,99725.63
2023-11-22T08:10:20.594Z,99730.00
2023-11-22T08:12:49.332Z,99738.88
2023-11-22T08:15:16.879Z,99731.13
2023-11-22T08:17:47.747Z,99722.69
2023-11-22T08:20:19.028Z,99718.41
2023-11-22T08:22:46.965Z,99713.66
2023-11-22T08:25:14.641Z,99713.50
2023-11-22T08:27:44.795Z,99716.22
2023-11-22T08:30:17.225Z,99719.84
2023-11-22T08:32:48.684Z,99713.25
2023-11-22T08:35:16.694Z,99717.25
2023-11-22T08:37:44.518Z,99709.94
2023-11-22T08:40:21.970Z,99711.91
2023-11-22T08:42:49.797Z,99709.91
2023-11-22T08:45:17.357Z,99706.47
2023-11-22T08:47:44.898Z,99705.78
2023-11-22T08:50:12.507Z,99708.31
2023-11-22T08:52:40.486Z,99704.97
2023-11-22T08:55:08.927Z,99699.56
2023-11-22T08:57:39.664Z,99704.44
2023-11-22T09:00:10.130Z,99705.22
2023-11-22T09:02:38.017Z,99706.25
2023-11-22T09:05:09.151Z,99710.22
2023-11-22T09:07:37.542Z,99697.09
2023-11-22T09:10:12.491Z,99699.41
2023-11-22T09:12:42.049Z,99700.72
2023-11-22T09:15:14.637Z,99698.25
2023-11-22T09:17:48.038Z,99703.38
2023-11-22T09:20:21.131Z,99695.31
2023-11-22T09:22:55.911Z,99707.72
2023-11-22T09:25:25.264Z,99707.94
2023-11-22T09:28:02.334Z,99711.63
2023-11-22T09:30:34.324Z,99711.75
2023-11-22T09:33:10.515Z,99701.81
2023-11-22T09:35:38.968Z,99700.69
2023-11-22T09:38:13.815Z,99699.03
2023-11-22T09:40:45.324Z,99707.03
2023-11-22T09:43:18.250Z,99711.13
2023-11-22T09:45:46.253Z,99716.75
2023-11-22T09:48:19.596Z,99714.94
2023-11-22T09:51:04.404Z,99717.34
2023-11-22T09:53:35.891Z,99714.41
2023-11-22T09:56:05.107Z,99718.88
2023-11-22T09:58:35.511Z,99716.44
2023-11-22T10:01:03.609Z,99713.63
2023-11-22T10:03:31.538Z,99713.09
2023-11-22T10:06:05.531Z,99711.91
2023-11-22T10:08:33.160Z,99718.50
2023-11-22T10:11:00.804Z,99717.66
2023-11-22T10:13:28.334Z,99711.88
2023-11-22T10:15:55.450Z,99713.34
2023-11-22T10:18:23.394Z,99711.22
2023-11-22T10:20:51.288Z,99706.34
2023-11-22T10:23:20.828Z,99705.66
2023-11-22T10:25:53.981Z,99704.00
2023-11-22T10:28:22.543Z,99705.72
2023-11-22T10:30:51.186Z,99708.88
2023-11-22T10:33:21.052Z,99704.97
2023-11-22T10:35:52.409Z,99718.03
2023-11-22T10:38:20.364Z,99708.91
2023-11-22T10:40:49.258Z,99704.34
2023-11-22T10:43:17.861Z,99704.06
2023-11-22T10:45:56.833Z,99704.06
2023-11-22T10:48:26.290Z,99700.38
2023-11-22T10:50:58.282Z,99706.03
2023-11-22T10:53:34.185Z,99704.03
2023-11-22T10:56:08.114Z,99709.34
2023-11-22T10:58:36.426Z,99704.63
2023-11-22T11:01:07.625Z,99698.53
2023-11-22T11:03:41.353Z,99706.09
2023-11-22T11:06:14.789Z,99698.25
2023-11-22T11:08:42.461Z,99695.94
2023-11-22T11:11:10.165Z,99699.72
2023-11-22T11:13:37.276Z,99705.44
2023-11-22T11:16:04.731Z,99700.81
2023-11-22T11:18:34.294Z,99697.03
2023-11-22T11:21:09.287Z,99697.69
2023-11-22T11:23:36.553Z,99696.00
2023-11-22T11:26:16.930Z,99691.81
2023-11-22T11:28:45.724Z,99686.56
2023-11-22T11:31:13.032Z,99690.34
2023-11-22T11:33:49.130Z,99687.19
2023-11-22T11:36:25.934Z,99681.38
2023-11-22T11:39:10.697Z,99676.88
2023-11-22T11:41:38.579Z,99673.81
2023-11-22T11:44:09.787Z,99678.06
2023-11-22T11:46:39.163Z,99682.00
2023-11-22T11:49:11.085Z,99684.03
2023-11-22T11:51:39.242Z,99683.84
2023-11-22T11:54:07.090Z,99681.19
2023-11-22T11:56:37.238Z,99692.75
2023-11-22T11:59:04.744Z,99684.22
2023-11-22T12:01:33.982Z,99682.66
2023-11-22T12:04:05.191Z,99680.63
2023-11-22T12:06:34.891Z,99679.19
2023-11-22T12:09:02.582Z,99678.31
2023-11-22T12:11:31.647Z,99680.03
2023-11-22T12:14:00.095Z,99679.53
2023-11-22T12:16:28.900Z,99690.00
2023-11-22T12:18:56.623Z,99693.56
2023-11-22T12:21:24.741Z,99694.91
2023-11-22T12:23:52.705Z,99700.06
2023-11-22T12:26:21.883Z,99706.66
2023-11-22T12:28:57.697Z,99701.72
2023-11-22T12:31:36.372Z,99701.72
2023-11-22T12:34:07.856Z,99707.72
2023-11-22T12:36:37.549Z,99709.97
2023-11-22T12:39:09.854Z,99711.09
2023-11-22T12:41:37.155Z,99713.59
2023-11-22T12:44:06.413Z,99710.94
2023-11-22T12:47:12.651Z,99710.63
2023-11-22T12:49:48.618Z,99717.09
2023-11-22T12:52:15.792Z,99714.78
2023-11-22T12:54:43.033Z,99720.91
2023-11-22T12:57:14.223Z,99717.19
2023-11-22T12:59:42.576Z,99721.66
2023-11-22T13:02:10.614Z,99719.84
2023-11-22T13:04:38.171Z,99716.41
2023-11-22T13:07:06.035Z,99719.72
2023-11-22T13:09:35.136Z,99725.22
2023-11-22T13:12:02.574Z,99732.09
2023-11-22T13:14:33.689Z,99728.94
2023-11-22T13:17:00.984Z,99730.56
2023-11-22T13:19:27.985Z,99734.75
2023-11-22T13:21:55.171Z,99728.41
2023-11-22T13:24:22.117Z,99723.97
2023-11-22T13:26:49.280Z,99720.03
2023-11-22T13:29:16.490Z,99723.53
2023-11-22T13:31:43.977Z,99715.88
2023-11-22T13:34:11.989Z,99718.09
2023-11-22T13:36:39.270Z,99718.16
2023-11-22T13:39:06.467Z,99718.06
2023-11-22T13:41:33.771Z,99721.88
2023-11-22T13:44:02.230Z,99727.34
2023-11-22T13:46:29.572Z,99736.56
2023-11-22T13:48:56.735Z,99732.53
2023-11-22T13:51:26.067Z,99731.13
2023-11-22T13:53:54.772Z,99724.59
2023-11-22T13:56:23.128Z,99722.28
2023-11-22T13:58:50.331Z,99726.13
2023-11-22T14:01:22.942Z,99732.72
2023-11-22T14:03:50.818Z,99723.50
2023-11-22T14:06:18.418Z,99724.03
2023-11-22T14:08:46.462Z,99728.31
2023-11-22T14:11:14.332Z,99732.59
2023-11-22T14:13:41.588Z,99727.53
2023-11-22T14:16:10.291Z,99728.22
2023-11-22T14:18:37.587Z,99729.88
2023-11-22T14:21:05.668Z,99730.44
2023-11-22T14:23:33.294Z,99741.84
2023-11-22T14:26:01.108Z,99739.22
2023-11-22T14:28:28.082Z,99739.78
2023-11-22T14:30:56.278Z,99740.09
2023-11-22T14:33:23.787Z,99736.81
2023-11-22T14:35:51.321Z,99738.44
2023-11-22T14:38:19.700Z,99733.75
2023-11-22T14:40:47.714Z,99735.47
2023-11-22T14:43:15.145Z,99740.75
2023-11-22T14:45:43.300Z,99736.59
2023-11-22T14:48:11.478Z,99741.41
2023-11-22T14:50:38.821Z,99739.44
2023-11-22T14:53:07.101Z,99738.97
2023-11-22T14:55:39.264Z,99732.09
2023-11-22T14:58:07.565Z,99732.09
2023-11-22T15:00:34.596Z,99744.03
2023-11-22T15:03:03.426Z,99743.41
2023-11-22T15:05:30.610Z,99745.47
2023-11-22T15:07:58.550Z,99743.03
2023-11-22T15:10:27.073Z,99743.81
2023-11-22T15:12:56.638Z,99742.84
2023-11-22T15:15:26.749Z,99744.47
2023-11-22T15:17:54.862Z,99745.25
2023-11-22T15:20:23.059Z,99750.59
2023-11-22T15:22:51.788Z,99754.19
2023-11-22T15:25:19.600Z,99752.03
2023-11-22T15:27:47.389Z,99752.88
2023-11-22T15:30:14.789Z,99755.94
2023-11-22T15:32:42.068Z,99756.84
2023-11-22T15:35:10.108Z,99760.13
2023-11-22T15:37:37.370Z,99759.91
2023-11-22T15:40:05.850Z,99750.81
2023-11-22T15:42:33.117Z,99749.28
2023-11-22T15:45:00.413Z,99753.22
2023-11-22T15:47:27.810Z,99754.09
2023-11-22T15:49:56.056Z,99741.59
2023-11-22T15:52:23.747Z,99751.75
2023-11-22T15:54:50.980Z,99750.06
2023-11-22T15:57:18.271Z,99759.00
2023-11-22T15:59:45.372Z,99764.72
2023-11-22T16:02:12.916Z,99754.75
2023-11-22T16:04:40.076Z,99752.22
2023-11-22T16:07:07.404Z,99762.41
2023-11-22T16:09:35.029Z,99759.97
2023-11-22T16:12:02.702Z,99754.53
2023-11-22T16:14:30.695Z,99758.00
2023-11-22T16:16:57.929Z,99750.00
2023-11-22T16:19:26.063Z,99758.28
2023-11-22T16:21:53.877Z,99762.97
2023-11-22T16:24:21.133Z,99768.63
2023-11-22T16:26:48.979Z,99771.63
2023-11-22T16:29:17.294Z,99770.97
2023-11-22T16:31:44.962Z,99768.69
2023-11-22T16:34:12.553Z,99767.69
2023-11-22T16:36:39.702Z,99766.16
2023-11-22T16:39:20.280Z,99767.34
2023-11-22T16:41:52.336Z,99767.66
2023-11-22T16:44:23.265Z,99765.13
2023-11-22T16:46:50.589Z,99765.66
2023-11-22T16:49:17.932Z,99766.53
2023-11-22T16:51:47.153Z,99767.75
2023-11-22T16:54:15.140Z,99772.91
2023-11-22T16:56:42.568Z,99763.38
2023-11-22T16:59:10.201Z,99765.06
2023-11-22T17:01:37.548Z,99764.47
2023-11-22T17:04:04.878Z,99765.00
2023-11-22T17:06:32.001Z,99776.31
2023-11-22T17:09:02.181Z,99770.88
2023-11-22T17:11:29.347Z,99773.00
2023-11-22T17:13:56.420Z,99766.47
2023-11-22T17:16:25.380Z,99769.84
2023-11-22T17:18:52.633Z,99772.00
2023-11-22T17:21:19.956Z,99774.59
2023-11-22T17:23:47.054Z,99769.03
2023-11-22T17:26:14.254Z,99770.50
2023-11-22T17:28:41.706Z,99768.13
2023-11-22T17:31:08.941Z,99760.03
2023-11-22T17:33:36.706Z,99755.91
2023-11-22T17:36:05.538Z,99763.53
2023-11-22T17:38:32.942Z,99768.75
2023-11-22T17:41:01.609Z,99767.75
2023-11-22T17:43:29.326Z,99766.47
2023-11-22T17:45:57.161Z,99757.94
2023-11-22T17:48:25.458Z,99756.06
2023-11-22T17:50:52.801Z,99765.00
2023-11-22T17:53:20.059Z,99766.16
2023-11-22T17:55:47.120Z,99764.38
2023-11-22T17:58:15.869Z,99769.59
2023-11-22T18:00:43.028Z,99774.25
2023-11-22T18:03:10.434Z,99775.84
2023-11-22T18:06:03.539Z,99771.53
2023-11-22T18:08:36.513Z,99776.53
2023-11-22T18:11:03.804Z,99772.19
2023-11-22T18:13:30.909Z,99778.69
2023-11-22T18:15:57.988Z,99765.66
2023-11-22T18:18:25.341Z,99751.72
2023-11-22T18:20:52.988Z,99750.16
2023-11-22T18:23:20.137Z,99745.31
2023-11-22T18:25:47.438Z,99743.19
2023-11-22T18:28:16.216Z,99746.34
2023-11-22T18:30:44.686Z,99741.03
2023-11-22T18:33:13.333Z,99727.06
2023-11-22T18:35:43.597Z,99735.47
2023-11-22T18:38:10.954Z,99729.56
2023-11-22T18:40:39.338Z,99735.81
2023-11-22T18:43:07.478Z,99734.50
2023-11-22T18:45:34.991Z,99736.00
2023-11-22T18:48:02.761Z,99738.72
2023-11-22T18:50:30.347Z,99742.75
2023-11-22T18:52:57.589Z,99739.72
2023-11-22T18:55:24.561Z,99738.44
2023-11-22T18:57:51.840Z,99734.28
2023-11-22T19:00:21.020Z,99734.59
2023-11-22T19:02:48.396Z,99734.28
2023-11-22T19:05:18.739Z,99731.63
2023-11-22T19:07:49.752Z,99728.13
2023-11-22T19:10:18.762Z,99731.72
2023-11-22T19:15:13.134Z,99730.28
2023-11-22T19:17:40.376Z,99719.00
2023-11-22T19:20:11.570Z,99719.63
2023-11-22T19:22:38.809Z,99718.97
2023-11-22T19:25:06.538Z,99725.72
2023-11-22T19:27:33.935Z,99718.16
2023-11-22T19:30:01.052Z,99722.34
2023-11-22T19:32:28.342Z,99719.03
2023-11-22T19:34:55.391Z,99709.03
2023-11-22T19:37:24.999Z,99719.84
2023-11-22T19:39:52.019Z,99714.59
2023-11-22T19:42:19.068Z,99711.97
2023-11-22T19:44:46.251Z,99710.22
2023-11-22T19:47:13.367Z,99703.56
2023-11-22T19:49:41.482Z,99705.09
2023-11-22T19:52:09.023Z,99700.06
2023-11-22T19:54:37.665Z,99707.22
2023-11-22T19:57:05.160Z,99703.56
2023-11-22T19:59:34.949Z,99699.66
2023-11-22T20:02:03.782Z,99700.41
2023-11-22T20:04:31.117Z,99699.91
2023-11-22T20:06:58.305Z,99694.53
2023-11-22T20:09:26.140Z,99699.56
2023-11-22T20:11:53.959Z,99703.69
2023-11-22T20:14:21.114Z,99698.41
2023-11-22T20:16:48.236Z,99692.69
2023-11-22T20:19:15.480Z,99686.00
2023-11-22T20:21:43.459Z,99682.22
2023-11-22T20:24:11.458Z,99686.00
2023-11-22T20:26:39.623Z,99676.44
2023-11-22T20:29:06.798Z,99671.47
2023-11-22T20:31:33.961Z,99663.63
2023-11-22T20:34:01.265Z,99670.72
2023-11-22T20:36:28.441Z,99665.22
2023-11-22T20:38:55.690Z,99675.63
2023-11-22T20:41:26.159Z,99677.63
2023-11-22T20:43:53.729Z,99682.50
2023-11-22T20:46:21.012Z,99669.53
2023-11-22T20:48:48.491Z,99666.28
2023-11-22T20:51:15.889Z,99659.91
2023-11-22T20:53:43.118Z,99668.97
2023-11-22T20:56:11.026Z,99659.13
2023-11-22T20:58:38.380Z,99662.91
2023-11-22T21:01:05.659Z,99666.09
2023-11-22T21:03:32.880Z,99666.63
2023-11-22T21:06:00.286Z,99664.25
2023-11-22T21:08:27.566Z,99659.75
2023-11-22T21:10:54.746Z,99658.00
2023-11-22T21:13:22.991Z,99654.97
2023-11-22T21:15:51.802Z,99649.94
2023-11-22T21:18:19.109Z,99645.63
2023-11-22T21:20:47.571Z,99650.78
2023-11-22T21:23:14.923Z,99651.53
2023-11-22T21:25:42.055Z,99642.88
2023-11-22T21:28:09.218Z,99640.66
2023-11-22T21:30:36.266Z,99634.88
2023-11-22T21:33:03.578Z,99624.81
2023-11-22T21:35:31.166Z,99629.75
2023-11-22T21:37:58.274Z,99625.94
2023-11-22T21:40:25.477Z,99623.44
2023-11-22T21:42:52.724Z,99618.97
2023-11-22T21:45:20.531Z,99617.25
2023-11-22T21:47:47.664Z,99622.50
2023-11-22T21:50:14.990Z,99611.09
2023-11-22T21:52:43.813Z,99615.69
2023-11-22T21:55:13.202Z,99611.66
2023-11-22T21:57:40.281Z,99618.44
2023-11-22T22:00:09.741Z,99603.34
2023-11-22T22:02:37.011Z,99599.88
2023-11-22T22:05:04.855Z,99603.69
2023-11-22T22:07:32.288Z,99598.56
2023-11-22T22:10:00.070Z,99598.44
2023-11-22T22:12:27.247Z,99599.53
2023-11-22T22:14:54.939Z,99593.50
2023-11-22T22:17:22.111Z,99590.41
2023-11-22T22:19:49.204Z,99583.72
2023-11-22T22:22:16.379Z,99583.91
2023-11-22T22:24:43.336Z,99584.00
2023-11-22T22:27:10.507Z,99581.53
2023-11-22T22:29:37.744Z,99591.81
2023-11-22T22:32:05.214Z,99585.94
2023-11-22T22:34:32.573Z,99586.88
2023-11-22T22:36:59.778Z,99576.63
2023-11-22T22:39:27.354Z,99578.56
2023-11-22T22:41:54.445Z,99579.47
2023-11-22T22:44:22.077Z,99573.69
2023-11-22T22:46:49.187Z,99575.34
2023-11-22T22:49:16.771Z,99577.47
2023-11-22T22:51:44.076Z,99576.66
2023-11-22T22:54:11.698Z,99574.00
2023-11-22T22:56:38.915Z,99574.19
2023-11-22T22:59:07.781Z,99578.66
2023-11-22T23:01:35.481Z,99577.19
2023-11-22T23:04:04.867Z,99576.13
2023-11-22T23:06:32.199Z,99569.94
2023-11-22T23:08:59.237Z,99566.66
2023-11-22T23:11:26.324Z,99568.59
2023-11-22T23:13:53.556Z,99567.63
2023-11-22T23:16:20.715Z,99567.91
2023-11-22T23:18:55.675Z,99563.13
2023-11-22T23:21:27.938Z,99554.84
2023-11-22T23:23:55.550Z,99554.75
2023-11-22T23:26:26.984Z,99551.97
2023-11-22T23:28:54.090Z,99559.25
2023-11-22T23:31:21.244Z,99543.72
2023-11-22T23:33:51.538Z,99547.56
2023-11-22T23:36:18.992Z,99542.31
2023-11-22T23:38:47.156Z,99542.25
2023-11-22T23:41:14.295Z,99544.22
2023-11-22T23:43:41.678Z,99542.94
2023-11-22T23:46:10.000Z,99539.84
2023-11-22T23:48:37.544Z,99539.72
2023-11-22T23:51:06.134Z,99536.75
2023-11-22T23:53:33.237Z,99536.44
2023-11-22T23:56:02.038Z,99543.53
2023-11-22T23:58:29.225Z,99539.88
